createdAt,value
2018-06-12T00:00:57.333Z,35.67
2018-06-12T00:03:28.209Z,47.37
2018-06-12T00:05:59.377Z,45.33
2018-06-12T00:08:30.557Z,48.50
2018-06-12T00:11:01.615Z,43.90
2018-06-12T00:13:33.280Z,48.33
2018-06-12T00:16:04.373Z,48.63
2018-06-12T00:18:35.391Z,52.83
2018-06-12T00:21:06.613Z,53.15
2018-06-12T00:23:37.656Z,52.57
2018-06-12T00:26:08.669Z,53.95
2018-06-12T00:28:39.728Z,51.00
2018-06-12T00:31:10.668Z,53.75
2018-06-12T00:33:41.695Z,53.60
2018-06-12T00:36:12.548Z,54.40
2018-06-12T00:38:43.208Z,54.17
2018-06-12T00:41:14.145Z,54.27
2018-06-12T00:43:45.586Z,55.40
2018-06-12T00:46:17.311Z,55.30
2018-06-12T00:48:48.089Z,57.20
2018-06-12T00:51:19.242Z,54.00
2018-06-12T00:53:50.766Z,54.10
2018-06-12T00:56:38.305Z,52.97
2018-06-12T00:59:09.414Z,54.07
2018-06-12T01:01:40.635Z,52.20
2018-06-12T01:04:11.838Z,52.80
2018-06-12T01:06:42.785Z,54.70
2018-06-12T01:09:13.750Z,50.67
2018-06-12T01:11:44.730Z,48.43
2018-06-12T01:14:15.651Z,49.40
2018-06-12T01:16:46.855Z,48.23
2018-06-12T01:19:17.765Z,48.17
2018-06-12T01:21:48.235Z,48.80
2018-06-12T01:24:19.152Z,47.03
2018-06-12T01:26:51.622Z,49.77
2018-06-12T01:29:22.777Z,47.60
2018-06-12T01:31:53.942Z,48.53
2018-06-12T01:34:25.176Z,47.60
2018-06-12T01:36:56.064Z,46.83
2018-06-12T01:39:26.901Z,47.67
2018-06-12T01:41:57.922Z,46.43
2018-06-12T01:44:29.023Z,47.30
2018-06-12T01:47:00.410Z,46.23
2018-06-12T01:49:31.635Z,46.03
2018-06-12T01:52:02.617Z,47.57
2018-06-12T01:54:33.790Z,45.40
2018-06-12T01:57:04.344Z,45.88
2018-06-12T01:59:35.412Z,46.50
2018-06-12T02:02:06.557Z,47.80
2018-06-12T02:04:37.625Z,45.30
2018-06-12T02:07:08.583Z,47.27
2018-06-12T02:09:39.475Z,45.20
2018-06-12T02:12:10.636Z,43.23
2018-06-12T02:14:41.719Z,46.00
2018-06-12T02:17:12.912Z,44.40
2018-06-12T02:19:43.998Z,44.43
2018-06-12T02:22:16.141Z,45.47
2018-06-12T02:24:47.013Z,45.70
2018-06-12T02:27:17.918Z,45.60
2018-06-12T02:29:48.643Z,45.70
2018-06-12T02:32:19.741Z,44.77
2018-06-12T02:34:50.665Z,45.10
2018-06-12T02:37:21.690Z,43.97
2018-06-12T02:39:52.700Z,45.60
2018-06-12T02:42:23.830Z,43.30
2018-06-12T02:44:54.631Z,43.20
2018-06-12T02:47:25.795Z,43.80
2018-06-12T02:49:56.784Z,43.23
2018-06-12T02:52:27.992Z,42.47
2018-06-12T02:54:59.840Z,40.33
2018-06-12T02:57:30.985Z,41.93
2018-06-12T03:00:01.700Z,41.77
2018-06-12T03:02:32.683Z,40.77
2018-06-12T03:05:03.746Z,39.03
2018-06-12T03:07:34.762Z,39.63
2018-06-12T03:10:05.862Z,41.65
2018-06-12T03:12:36.948Z,41.27
2018-06-12T03:15:08.121Z,39.30
2018-06-12T03:17:39.060Z,42.30
2018-06-12T03:20:10.190Z,41.45
2018-06-12T03:22:41.221Z,40.67
2018-06-12T03:25:12.189Z,39.30
2018-06-12T03:27:42.997Z,40.17
2018-06-12T03:30:14.140Z,38.90
2018-06-12T03:32:45.240Z,38.80
2018-06-12T03:35:16.209Z,37.23
2018-06-12T03:37:48.303Z,37.43
2018-06-12T03:40:19.435Z,37.27
2018-06-12T03:42:50.377Z,37.50
2018-06-12T03:45:21.311Z,35.07
2018-06-12T03:47:52.282Z,35.20
2018-06-12T03:50:23.483Z,36.07
2018-06-12T03:52:54.619Z,36.50
2018-06-12T03:55:25.583Z,34.43
2018-06-12T03:57:56.726Z,34.10
2018-06-12T04:00:27.938Z,31.80
2018-06-12T04:03:00.050Z,36.93
2018-06-12T04:05:31.110Z,32.60
2018-06-12T04:08:02.023Z,34.60
2018-06-12T04:10:33.021Z,32.67
2018-06-12T04:13:04.174Z,34.00
2018-06-12T04:15:35.193Z,32.77
2018-06-12T04:18:06.156Z,33.60
2018-06-12T04:20:37.038Z,35.70
2018-06-12T04:23:08.099Z,36.30
2018-06-12T04:25:38.967Z,39.20
2018-06-12T04:28:10.099Z,40.63
2018-06-12T04:30:41.095Z,38.70
2018-06-12T04:33:12.282Z,40.55
2018-06-12T04:35:43.255Z,40.10
2018-06-12T04:38:14.333Z,40.55
2018-06-12T04:40:45.458Z,40.93
2018-06-12T04:43:16.565Z,43.38
2018-06-12T04:45:47.583Z,41.30
2018-06-12T04:48:18.724Z,41.90
2018-06-12T04:50:49.675Z,41.13
2018-06-12T04:53:20.739Z,34.90
2018-06-12T04:55:51.809Z,30.27
2018-06-12T04:58:22.982Z,30.20
2018-06-12T05:00:53.696Z,29.00
2018-06-12T05:03:24.204Z,27.40
2018-06-12T05:05:55.184Z,29.00
2018-06-12T05:08:29.651Z,28.57
2018-06-12T05:11:02.503Z,27.27
2018-06-12T05:13:33.703Z,26.50
2018-06-12T05:16:04.732Z,28.75
2018-06-12T05:18:35.907Z,28.23
2018-06-12T05:21:06.742Z,28.80
2018-06-12T05:23:37.268Z,28.00
2018-06-12T05:26:08.844Z,27.20
2018-06-12T05:28:39.529Z,27.67
2018-06-12T05:31:10.533Z,29.20
2018-06-12T05:33:41.622Z,26.13
2018-06-12T05:36:12.272Z,28.23
2018-06-12T05:38:43.293Z,29.67
2018-06-12T05:41:14.431Z,28.70
2018-06-12T05:43:45.409Z,29.63
2018-06-12T05:46:16.307Z,31.60
2018-06-12T05:48:47.475Z,31.50
2018-06-12T05:51:18.414Z,30.00
2018-06-12T05:53:50.632Z,29.97
2018-06-12T05:56:21.609Z,30.13
2018-06-12T05:58:52.689Z,32.63
2018-06-12T06:01:23.929Z,31.10
2018-06-12T06:03:55.014Z,33.53
2018-06-12T06:06:26.370Z,30.93
2018-06-12T06:08:57.405Z,30.67
2018-06-12T06:11:28.571Z,30.77
2018-06-12T06:14:00.319Z,31.37
2018-06-12T06:16:31.452Z,30.30
2018-06-12T06:19:03.591Z,31.37
2018-06-12T06:21:34.601Z,29.70
2018-06-12T06:24:05.786Z,30.00
2018-06-12T06:26:36.880Z,28.77
2018-06-12T06:29:08.157Z,29.05
2018-06-12T06:31:39.543Z,31.50
2018-06-12T06:34:10.742Z,30.32
2018-06-12T06:36:41.229Z,34.20
2018-06-12T06:39:12.089Z,34.60
2018-06-12T06:41:43.107Z,34.10
2018-06-12T06:44:14.310Z,33.45
2018-06-12T06:46:45.434Z,34.70
2018-06-12T06:49:18.079Z,34.35
2018-06-12T06:51:49.065Z,34.30
2018-06-12T06:54:21.064Z,33.50
2018-06-12T06:56:51.937Z,35.60
2018-06-12T06:59:23.114Z,35.03
2018-06-12T07:01:54.044Z,36.50
2018-06-12T07:04:25.231Z,35.43
2018-06-12T07:06:56.403Z,36.27
2018-06-12T07:09:27.511Z,34.07
2018-06-12T07:11:58.476Z,36.17
2018-06-12T07:14:30.094Z,30.90
2018-06-12T07:17:00.926Z,31.23
2018-06-12T07:19:32.177Z,29.50
2018-06-12T07:22:03.431Z,29.33
2018-06-12T07:24:34.681Z,29.53
2018-06-12T07:27:05.787Z,27.60
2018-06-12T07:29:36.722Z,28.67
2018-06-12T07:32:07.911Z,26.70
2018-06-12T07:34:38.985Z,28.17
2018-06-12T07:37:10.073Z,27.07
2018-06-12T07:39:41.183Z,28.43
2018-06-12T07:42:12.153Z,29.27
2018-06-12T07:44:43.164Z,28.30
2018-06-12T07:47:13.842Z,28.87
2018-06-12T07:49:44.880Z,28.93
2018-06-12T07:52:15.793Z,27.58
2018-06-12T07:54:46.818Z,28.90
2018-06-12T07:57:18.025Z,30.05
2018-06-12T07:59:49.152Z,28.10
2018-06-12T08:02:20.289Z,28.27
2018-06-12T08:04:51.439Z,28.93
2018-06-12T08:07:22.431Z,27.90
2018-06-12T08:09:53.482Z,25.77
2018-06-12T08:12:24.561Z,28.27
2018-06-12T08:14:55.690Z,28.17
2018-06-12T08:17:26.875Z,26.73
2018-06-12T08:19:58.026Z,27.10
2018-06-12T08:22:29.102Z,27.80
2018-06-12T08:25:00.666Z,26.00
2018-06-12T08:27:31.717Z,26.87
2018-06-12T08:30:03.014Z,26.10
2018-06-12T08:32:33.888Z,26.30
2018-06-12T08:35:05.205Z,25.37
2018-06-12T08:37:36.314Z,28.17
2018-06-12T08:40:07.665Z,26.60
2018-06-12T08:42:38.669Z,26.97
2018-06-12T08:45:10.803Z,30.97
2018-06-12T08:47:41.900Z,32.45
2018-06-12T08:50:13.127Z,36.37
2018-06-12T08:52:44.346Z,34.13
2018-06-12T08:55:15.450Z,32.13
2018-06-12T08:57:46.414Z,31.17
2018-06-12T09:00:17.605Z,31.55
2018-06-12T09:02:48.213Z,33.57
2018-06-12T09:05:19.301Z,34.47
2018-06-12T09:07:50.888Z,32.80
2018-06-12T09:10:21.822Z,32.07
2018-06-12T09:12:52.924Z,33.60
2018-06-12T09:15:25.097Z,34.10
2018-06-12T09:17:57.248Z,32.20
2018-06-12T09:20:28.356Z,31.33
2018-06-12T09:22:59.330Z,31.50
2018-06-12T09:25:30.281Z,29.97
2018-06-12T09:28:01.092Z,29.23
2018-06-12T09:30:32.154Z,29.73
2018-06-12T09:33:03.203Z,31.23
2018-06-12T09:35:34.271Z,30.00
2018-06-12T09:38:05.477Z,30.12
2018-06-12T09:40:36.576Z,29.53
2018-06-12T09:43:07.695Z,28.95
2018-06-12T09:45:38.842Z,30.53
2018-06-12T09:48:09.885Z,30.73
2018-06-12T09:50:41.133Z,31.07
2018-06-12T09:53:12.204Z,33.10
2018-06-12T09:55:43.302Z,34.73
2018-06-12T09:58:14.524Z,35.28
2018-06-12T10:00:50.559Z,37.40
2018-06-12T10:03:21.635Z,36.30
2018-06-12T10:05:52.595Z,29.67
2018-06-12T10:08:23.555Z,29.37
2018-06-12T10:10:54.607Z,33.40
2018-06-12T10:13:25.537Z,32.70
2018-06-12T10:15:56.627Z,33.50
2018-06-12T10:18:28.191Z,30.87
2018-06-12T10:20:59.266Z,26.90
2018-06-12T10:23:30.288Z,24.60
2018-06-12T10:26:01.319Z,21.07
2018-06-12T10:28:32.431Z,20.70
2018-06-12T10:31:03.530Z,19.33
2018-06-12T10:33:34.645Z,19.60
2018-06-12T10:36:05.765Z,20.57
2018-06-12T10:38:36.876Z,13.57
2018-06-12T10:41:08.988Z,14.10
2018-06-12T10:43:39.962Z,18.17
2018-06-12T10:46:10.871Z,14.93
2018-06-12T10:48:42.032Z,13.30
2018-06-12T10:51:13.182Z,11.83
2018-06-12T10:53:44.419Z,10.48
2018-06-12T10:56:15.556Z,9.68
2018-06-12T10:58:46.526Z,9.20
2018-06-12T11:01:17.875Z,9.23
2018-06-12T11:03:49.035Z,9.20
2018-06-12T11:06:20.236Z,8.40
2018-06-12T11:08:51.350Z,8.73
2018-06-12T11:11:22.487Z,9.30
2018-06-12T11:13:54.255Z,8.70
2018-06-12T11:16:25.477Z,7.90
2018-06-12T11:18:56.507Z,8.33
2018-06-12T11:21:27.919Z,8.97
2018-06-12T11:23:59.035Z,9.50
2018-06-12T11:26:29.845Z,9.50
2018-06-12T11:29:01.038Z,9.53
2018-06-12T11:31:32.701Z,9.33
2018-06-12T11:34:03.855Z,8.53
2018-06-12T11:36:34.944Z,10.30
2018-06-12T11:39:08.314Z,11.05
2018-06-12T11:41:39.379Z,12.28
2018-06-12T11:44:10.320Z,12.88
2018-06-12T11:46:41.373Z,14.73
2018-06-12T11:49:13.304Z,15.20
2018-06-12T11:51:44.576Z,16.13
2018-06-12T11:54:16.837Z,17.87
2018-06-12T11:56:47.935Z,19.23
2018-06-12T11:59:19.023Z,17.55
2018-06-12T12:01:50.629Z,17.53
2018-06-12T12:04:21.696Z,19.20
2018-06-12T12:06:52.925Z,16.77
2018-06-12T12:09:24.011Z,16.80
2018-06-12T12:11:55.265Z,15.90
2018-06-12T12:14:26.396Z,16.73
2018-06-12T12:16:57.411Z,18.00
2018-06-12T12:19:28.551Z,18.23
2018-06-12T12:22:00.250Z,17.70
2018-06-12T12:24:31.304Z,20.43
2018-06-12T12:27:02.361Z,18.70
2018-06-12T12:29:33.505Z,20.60
2018-06-12T12:32:04.683Z,17.50
2018-06-12T12:34:35.776Z,18.07
2018-06-12T12:37:07.026Z,18.40
2018-06-12T12:39:37.975Z,18.33
2018-06-12T12:42:10.489Z,15.80
2018-06-12T12:44:41.687Z,14.50
2018-06-12T12:47:12.862Z,14.87
2018-06-12T12:49:43.927Z,14.73
2018-06-12T12:52:15.106Z,15.75
2018-06-12T12:54:47.003Z,16.63
2018-06-12T12:57:18.092Z,16.57
2018-06-12T12:59:48.898Z,16.87
2018-06-12T13:02:21.258Z,18.47
2018-06-12T13:04:52.536Z,19.00
2018-06-12T13:07:24.082Z,20.13
2018-06-12T13:09:55.184Z,17.60
2018-06-12T13:12:26.228Z,14.90
2018-06-12T13:14:57.335Z,18.77
2018-06-12T13:17:28.453Z,18.40
2018-06-12T13:19:59.709Z,17.17
2018-06-12T13:22:30.790Z,18.07
2018-06-12T13:25:02.046Z,16.80
2018-06-12T13:27:33.849Z,15.10
2018-06-12T13:30:05.013Z,16.83
2018-06-12T13:32:35.900Z,13.73
2018-06-12T13:35:07.096Z,17.15
2018-06-12T13:37:39.079Z,16.27
2018-06-12T13:40:10.486Z,16.27
2018-06-12T13:42:41.579Z,16.43
2018-06-12T13:45:13.143Z,16.30
2018-06-12T13:47:44.321Z,15.23
2018-06-12T13:50:15.435Z,17.40
2018-06-12T13:52:46.551Z,17.40
2018-06-12T13:55:17.574Z,15.10
2018-06-12T13:57:48.515Z,17.90
2018-06-12T14:00:19.536Z,21.23
2018-06-12T14:02:50.389Z,20.83
2018-06-12T14:05:21.445Z,18.17
2018-06-12T14:07:52.559Z,18.57
2018-06-12T14:10:24.236Z,18.50
2018-06-12T14:12:55.129Z,18.97
2018-06-12T14:15:26.220Z,17.50
2018-06-12T14:17:57.307Z,17.80
2018-06-12T14:20:28.525Z,21.30
2018-06-12T14:22:59.718Z,21.67
2018-06-12T14:25:30.921Z,23.07
2018-06-12T14:28:02.932Z,22.80
2018-06-12T14:30:35.250Z,24.07
2018-06-12T14:33:06.777Z,23.77
2018-06-12T14:35:37.972Z,22.07
2018-06-12T14:38:11.140Z,21.48
2018-06-12T14:40:43.335Z,21.07
2018-06-12T14:43:14.664Z,21.07
2018-06-12T14:45:46.059Z,21.33
2018-06-12T14:48:17.056Z,19.53
2018-06-12T14:50:48.105Z,19.77
2018-06-12T14:53:19.148Z,20.82
2018-06-12T14:55:50.593Z,21.10
2018-06-12T14:58:21.804Z,19.73
2018-06-12T15:00:52.807Z,18.97
2018-06-12T15:03:24.023Z,17.67
2018-06-12T15:05:54.833Z,19.07
2018-06-12T15:08:27.058Z,19.07
2018-06-12T15:10:58.047Z,19.13
2018-06-12T15:13:29.068Z,18.27
2018-06-12T15:16:00.181Z,18.80
2018-06-12T15:18:31.452Z,18.50
2018-06-12T15:21:02.577Z,19.57
2018-06-12T15:23:34.473Z,19.13
2018-06-12T15:26:05.174Z,20.10
2018-06-12T15:28:35.728Z,19.63
2018-06-12T15:31:07.006Z,19.75
2018-06-12T15:33:38.258Z,20.67
2018-06-12T15:36:09.578Z,19.37
2018-06-12T15:38:40.874Z,22.33
2018-06-12T15:41:12.047Z,21.10
2018-06-12T15:43:43.294Z,20.37
2018-06-12T15:46:13.988Z,19.87
2018-06-12T15:48:45.330Z,22.27
2018-06-12T15:51:16.464Z,21.77
2018-06-12T15:53:47.628Z,22.50
2018-06-12T15:56:19.156Z,22.30
2018-06-12T15:58:50.214Z,21.60
2018-06-12T16:01:21.496Z,22.25
2018-06-12T16:03:52.617Z,23.73
2018-06-12T16:06:23.871Z,23.07
2018-06-12T16:08:55.001Z,22.03
2018-06-12T16:11:27.097Z,21.43
2018-06-12T16:13:58.198Z,21.47
2018-06-12T16:16:29.313Z,21.02
2018-06-12T16:19:00.742Z,19.60
2018-06-12T16:21:32.080Z,17.33
2018-06-12T16:24:03.276Z,18.60
2018-06-12T16:26:34.549Z,19.20
2018-06-12T16:29:05.519Z,18.17
2018-06-12T16:31:37.359Z,18.45
2018-06-12T16:34:08.420Z,18.33
2018-06-12T16:36:39.617Z,17.85
2018-06-12T16:39:10.757Z,17.80
2018-06-12T16:41:41.981Z,19.10
2018-06-12T16:44:13.047Z,18.27
2018-06-12T16:46:44.267Z,18.03
2018-06-12T16:49:15.426Z,18.63
2018-06-12T16:51:46.459Z,18.47
2018-06-12T16:54:17.476Z,16.70
2018-06-12T16:56:49.179Z,18.27
2018-06-12T16:59:20.159Z,16.77
2018-06-12T17:01:51.356Z,14.23
2018-06-12T17:04:22.790Z,17.53
2018-06-12T17:06:54.065Z,13.33
2018-06-12T17:09:25.204Z,13.83
2018-06-12T17:11:56.341Z,14.40
2018-06-12T17:14:27.509Z,14.70
2018-06-12T17:16:58.694Z,14.67
2018-06-12T17:19:30.646Z,13.73
2018-06-12T17:22:01.855Z,16.50
2018-06-12T17:24:32.992Z,15.18
2018-06-12T17:27:04.232Z,14.80
2018-06-12T17:29:35.578Z,14.60
2018-06-12T17:32:06.964Z,14.07
2018-06-12T17:34:38.055Z,13.88
2018-06-12T17:37:09.316Z,14.53
2018-06-12T17:39:40.581Z,13.30
2018-06-12T17:42:13.053Z,11.60
2018-06-12T17:44:44.142Z,12.97
2018-06-12T17:47:15.404Z,13.70
2018-06-12T17:49:46.488Z,12.33
2018-06-12T17:52:17.703Z,13.50
2018-06-12T17:54:49.779Z,11.87
2018-06-12T17:57:21.356Z,11.80
2018-06-12T17:59:52.470Z,11.40
2018-06-12T18:02:24.525Z,10.97
2018-06-12T18:04:55.958Z,11.50
2018-06-12T18:07:26.805Z,10.07
2018-06-12T18:09:57.930Z,11.67
2018-06-12T18:12:29.456Z,11.80
2018-06-12T18:15:01.034Z,9.70
2018-06-12T18:17:33.746Z,10.08
2018-06-12T18:20:04.910Z,10.53
2018-06-12T18:22:36.209Z,10.85
2018-06-12T18:25:07.701Z,10.13
2018-06-12T18:27:39.052Z,9.03
2018-06-12T18:30:10.245Z,9.33
2018-06-12T18:32:41.771Z,11.30
2018-06-12T18:35:12.821Z,9.57
2018-06-12T18:37:44.018Z,9.73
2018-06-12T18:40:15.237Z,9.00
2018-06-12T18:42:46.427Z,9.13
2018-06-12T18:45:17.603Z,9.23
2018-06-12T18:47:48.801Z,8.77
2018-06-12T18:50:20.038Z,9.53
2018-06-12T18:52:51.233Z,8.50
2018-06-12T18:55:22.362Z,8.17
2018-06-12T18:57:54.986Z,8.08
2018-06-12T19:00:26.284Z,7.73
2018-06-12T19:02:57.262Z,8.50
2018-06-12T19:05:28.166Z,7.97
2018-06-12T19:07:59.118Z,8.23
2018-06-12T19:10:30.010Z,8.50
2018-06-12T19:13:00.935Z,8.87
2018-06-12T19:15:31.881Z,7.50
2018-06-12T19:18:02.736Z,7.97
2018-06-12T19:20:33.632Z,8.63
2018-06-12T19:23:04.685Z,8.70
2018-06-12T19:25:35.622Z,7.72
2018-06-12T19:28:06.581Z,7.73
2018-06-12T19:30:37.737Z,8.18
2018-06-12T19:33:23.157Z,7.63
2018-06-12T19:35:53.942Z,8.30
2018-06-12T19:38:24.892Z,7.57
2018-06-12T19:40:55.761Z,8.57
2018-06-12T19:43:26.878Z,8.10
2018-06-12T19:45:57.769Z,8.03
2018-06-12T19:48:28.716Z,8.65
2018-06-12T19:50:59.803Z,8.40
2018-06-12T19:53:31.907Z,8.53
2018-06-12T19:56:03.286Z,8.00
2018-06-12T19:58:34.190Z,8.78
2018-06-12T20:01:05.082Z,8.43
2018-06-12T20:03:36.164Z,7.70
2018-06-12T20:06:07.486Z,8.30
2018-06-12T20:08:40.660Z,8.05
2018-06-12T20:11:11.483Z,8.97
2018-06-12T20:13:42.789Z,8.08
2018-06-12T20:16:13.743Z,8.40
2018-06-12T20:18:44.549Z,7.80
2018-06-12T20:21:15.807Z,7.27
2018-06-12T20:23:48.209Z,7.10
2018-06-12T20:26:19.217Z,7.60
2018-06-12T20:28:50.451Z,7.67
2018-06-12T20:31:21.567Z,6.70
2018-06-12T20:33:53.817Z,7.03
2018-06-12T20:36:24.814Z,7.67
2018-06-12T20:38:56.010Z,7.17
2018-06-12T20:41:27.021Z,6.27
2018-06-12T20:43:57.848Z,7.37
2018-06-12T20:46:28.793Z,7.53
2018-06-12T20:48:59.628Z,6.60
2018-06-12T20:51:30.849Z,7.03
2018-06-12T20:54:01.951Z,7.97
2018-06-12T20:56:32.798Z,7.75
2018-06-12T20:59:03.667Z,7.37
2018-06-12T21:01:34.701Z,7.47
2018-06-12T21:04:06.129Z,6.78
2018-06-12T21:06:36.960Z,7.33
2018-06-12T21:09:08.068Z,7.50
2018-06-12T21:11:38.750Z,6.87
2018-06-12T21:14:09.889Z,6.83
2018-06-12T21:16:41.068Z,6.80
2018-06-12T21:19:12.142Z,7.77
2018-06-12T21:21:42.614Z,6.77
2018-06-12T21:24:14.039Z,6.57
2018-06-12T21:26:45.233Z,7.00
2018-06-12T21:29:16.195Z,6.33
2018-06-12T21:31:47.182Z,5.60
2018-06-12T21:34:19.120Z,6.97
2018-06-12T21:36:53.102Z,7.23
2018-06-12T21:39:24.538Z,6.60
2018-06-12T21:41:55.364Z,7.10
2018-06-12T21:44:26.106Z,6.43
2018-06-12T21:46:56.899Z,6.73
2018-06-12T21:49:27.794Z,6.87
2018-06-12T21:51:58.609Z,6.67
2018-06-12T21:54:29.685Z,6.85
2018-06-12T21:57:00.786Z,5.70
2018-06-12T21:59:31.564Z,7.47
2018-06-12T22:02:02.378Z,7.57
2018-06-12T22:04:33.141Z,7.65
2018-06-12T22:07:03.953Z,7.07
2018-06-12T22:09:35.303Z,7.17
2018-06-12T22:12:06.444Z,7.20
2018-06-12T22:14:37.591Z,6.28
2018-06-12T22:17:08.337Z,6.27
2018-06-12T22:19:39.988Z,6.40
2018-06-12T22:22:10.519Z,6.73
2018-06-12T22:24:41.033Z,6.50
2018-06-12T22:27:11.515Z,7.00
2018-06-12T22:29:43.411Z,6.97
2018-06-12T22:32:14.150Z,6.90
2018-06-12T22:34:46.190Z,6.83
2018-06-12T22:37:17.206Z,6.67
2018-06-12T22:39:47.988Z,6.13
2018-06-12T22:42:18.971Z,6.73
2018-06-12T22:44:50.027Z,7.03
2018-06-12T22:47:20.940Z,7.57
2018-06-12T22:49:51.889Z,7.77
2018-06-12T22:52:22.609Z,6.80
2018-06-12T22:54:53.571Z,6.83
2018-06-12T22:57:24.857Z,6.73
2018-06-12T22:59:55.874Z,7.57
2018-06-12T23:02:27.070Z,7.03
2018-06-12T23:04:58.186Z,6.70
2018-06-12T23:07:29.286Z,7.00
2018-06-12T23:10:01.480Z,5.97
2018-06-12T23:12:32.577Z,7.12
2018-06-12T23:15:03.814Z,6.80
2018-06-12T23:17:34.896Z,6.83
2018-06-12T23:20:23.502Z,7.60
2018-06-12T23:22:54.573Z,6.50
2018-06-12T23:25:25.731Z,6.80
2018-06-12T23:27:56.774Z,7.03
2018-06-12T23:30:28.680Z,6.50
2018-06-12T23:32:59.697Z,6.97
2018-06-12T23:35:32.509Z,6.40
2018-06-12T23:38:03.597Z,6.00
2018-06-12T23:40:34.500Z,5.90
2018-06-12T23:43:05.440Z,6.80
2018-06-12T23:45:36.133Z,6.60
2018-06-12T23:48:07.255Z,6.67
2018-06-12T23:50:39.135Z,7.35
2018-06-12T23:53:10.192Z,7.30
2018-06-12T23:55:41.265Z,6.73
2018-06-12T23:58:12.394Z,6.40
